Time;durP1;ratioP1;P1;durP2;ratioP2;P2;SDS_P1;SDS_P2;PMS_P1;PMS_P2;Temp;Humidity;BMP_temperature;BMP_pressure;BME280_temperature;BME280_humidity;BME280_pressure;Samples;Min_cycle;Max_cycle;Signal;HPM_P1;HPM_P2
2021/01/20 00:01:58;;;;;;;1.63;1.23;;;5.80;99.90;;;;;;4976478;28;20196;-77
2021/01/20 00:04:24;;;;;;;1.37;1.27;;;5.90;99.90;;;;;;4974580;28;20686;-76
2021/01/20 00:06:49;;;;;;;1.00;0.90;;;5.80;99.90;;;;;;4973373;28;20211;-76
2021/01/20 00:09:16;;;;;;;1.30;1.20;;;5.80;99.90;;;;;;4975500;28;20227;-74
2021/01/20 00:11:41;;;;;;;1.23;1.07;;;5.70;99.90;;;;;;4975693;28;20194;-72
2021/01/20 00:14:07;;;;;;;1.13;1.03;;;5.70;99.90;;;;;;4973774;28;20259;-76
2021/01/20 00:16:33;;;;;;;0.80;0.80;;;5.80;99.90;;;;;;4976061;28;20192;-75
2021/01/20 00:18:58;;;;;;;0.70;0.63;;;5.80;99.90;;;;;;4974518;28;20715;-75
2021/01/20 00:21:24;;;;;;;0.67;0.67;;;5.80;99.90;;;;;;4976017;28;20550;-75
2021/01/20 00:23:50;;;;;;;1.23;1.03;;;5.80;99.90;;;;;;4976198;28;20243;-77
2021/01/20 00:26:16;;;;;;;1.57;1.20;;;5.80;99.90;;;;;;4975221;28;20215;-77
2021/01/20 00:28:42;;;;;;;1.23;1.00;;;5.80;99.90;;;;;;4974768;28;21235;-77
2021/01/20 00:31:08;;;;;;;1.03;1.00;;;5.80;99.90;;;;;;4976992;28;20206;-77
2021/01/20 00:33:33;;;;;;;0.83;0.83;;;5.80;99.90;;;;;;4976122;28;20189;-78
2021/01/20 00:35:59;;;;;;;1.10;1.00;;;5.80;99.90;;;;;;4975414;28;20547;-76
2021/01/20 00:38:25;;;;;;;1.50;1.20;;;5.70;99.90;;;;;;4975255;28;20310;-76
2021/01/20 00:40:50;;;;;;;0.90;0.90;;;5.60;99.90;;;;;;4977661;28;20200;-76
2021/01/20 00:43:16;;;;;;;1.40;1.20;;;5.60;99.90;;;;;;4977046;28;20200;-77
2021/01/20 00:45:41;;;;;;;0.97;0.87;;;5.70;99.90;;;;;;4978152;28;20705;-76
2021/01/20 00:48:11;;;;;;;0.73;0.73;;;5.60;99.90;;;;;;4982665;28;20863;-76
2021/01/20 00:50:37;;;;;;;1.17;1.07;;;5.70;99.90;;;;;;4974792;28;20232;-77
2021/01/20 00:53:03;;;;;;;1.17;0.90;;;5.70;99.90;;;;;;4975353;28;20789;-77
2021/01/20 00:55:28;;;;;;;1.07;0.90;;;5.60;99.90;;;;;;4976139;28;20188;-77
2021/01/20 00:57:54;;;;;;;1.70;1.43;;;5.60;99.90;;;;;;4976288;28;20241;-78
2021/01/20 01:00:20;;;;;;;1.30;1.17;;;5.70;99.90;;;;;;4976304;28;20200;-77
2021/01/20 01:02:46;;;;;;;1.00;0.90;;;5.60;99.90;;;;;;4974245;28;20254;-78
2021/01/20 01:05:12;;;;;;;0.80;0.80;;;5.60;99.90;;;;;;4975021;28;20699;-77
2021/01/20 01:07:37;;;;;;;1.10;0.93;;;5.50;99.90;;;;;;4976697;28;20199;-78
2021/01/20 01:10:04;;;;;;;0.70;0.70;;;5.50;99.90;;;;;;4973777;28;20233;-77
2021/01/20 01:12:30;;;;;;;1.13;0.80;;;5.60;99.90;;;;;;4976393;28;20188;-77
2021/01/20 01:14:55;;;;;;;1.00;0.90;;;5.50;99.90;;;;;;4975238;28;20185;-77
2021/01/20 01:17:21;;;;;;;0.80;0.80;;;5.70;99.90;;;;;;4974406;28;20193;-77
2021/01/20 01:19:46;;;;;;;0.87;0.77;;;5.70;99.90;;;;;;4973072;28;20219;-78
2021/01/20 01:22:12;;;;;;;0.93;0.77;;;5.70;99.90;;;;;;4976826;28;20188;-76
2021/01/20 01:24:39;;;;;;;1.27;0.97;;;5.60;99.90;;;;;;4979423;28;20195;-77
2021/01/20 01:27:05;;;;;;;1.10;1.00;;;5.60;99.90;;;;;;4978459;28;20283;-77
2021/01/20 01:29:30;;;;;;;0.83;0.83;;;5.50;99.90;;;;;;4979216;28;20623;-77
2021/01/20 01:31:56;;;;;;;1.03;0.93;;;5.60;99.90;;;;;;4979636;28;20230;-76
2021/01/20 01:34:22;;;;;;;0.60;0.60;;;5.60;99.90;;;;;;4977944;28;20176;-77
2021/01/20 01:36:47;;;;;;;1.10;1.00;;;5.70;99.90;;;;;;4979317;28;20192;-76
2021/01/20 01:39:14;;;;;;;1.20;1.10;;;5.60;99.90;;;;;;4979617;28;20240;-77
2021/01/20 01:41:40;;;;;;;1.47;1.37;;;5.50;99.90;;;;;;4979726;28;21168;-78
2021/01/20 01:44:06;;;;;;;1.10;1.00;;;5.50;99.90;;;;;;4980384;28;20184;-78
2021/01/20 01:46:31;;;;;;;0.80;0.80;;;5.50;99.90;;;;;;4978348;28;20276;-76
2021/01/20 01:48:58;;;;;;;1.10;0.93;;;5.50;99.90;;;;;;4978826;28;20560;-78
2021/01/20 01:51:24;;;;;;;1.40;1.30;;;5.50;99.90;;;;;;4978553;28;20185;-77
2021/01/20 01:53:51;;;;;;;1.60;1.13;;;5.40;99.90;;;;;;4977976;28;20183;-78
2021/01/20 01:56:17;;;;;;;2.40;1.50;;;5.40;99.90;;;;;;4978187;28;20188;-76
2021/01/20 01:58:44;;;;;;;1.73;1.13;;;5.40;99.90;;;;;;4977922;28;20232;-77
2021/01/20 02:01:09;;;;;;;1.43;1.20;;;5.40;99.90;;;;;;4977142;28;20218;-77
2021/01/20 02:03:35;;;;;;;1.63;1.00;;;5.30;99.90;;;;;;4976693;28;20181;-76
2021/01/20 02:06:01;;;;;;;0.90;0.90;;;5.40;99.90;;;;;;4985632;28;20208;-77
2021/01/20 02:08:27;;;;;;;1.50;0.93;;;5.40;99.90;;;;;;4978938;28;20188;-77
2021/01/20 02:10:59;;;;;;;0.97;0.90;;;5.40;99.90;;;;;;4977273;28;21162;-78
2021/01/20 02:13:44;;;;;;;1.30;1.13;;;5.40;99.90;;;;;;4978934;28;20206;-77
2021/01/20 02:16:15;;;;;;;2.90;1.20;;;5.40;99.90;;;;;;4980021;28;20195;-78
2021/01/20 02:18:41;;;;;;;1.07;0.97;;;5.30;99.90;;;;;;4979459;28;20232;-76
2021/01/20 02:21:18;;;;;;;2.00;1.53;;;5.30;99.90;;;;;;4976012;28;20319;-76
2021/01/20 02:23:44;;;;;;;1.10;0.90;;;5.30;99.90;;;;;;4977681;28;20263;-77
2021/01/20 02:26:59;;;;;;;1.17;1.10;;;5.20;99.90;;;;;;4979662;28;20214;-77
2021/01/20 02:30:08;;;;;;;1.47;1.37;;;5.10;99.90;;;;;;4978423;28;20658;-77
2021/01/20 02:32:35;;;;;;;1.17;0.93;;;5.10;99.90;;;;;;4966529;28;20192;-78
2021/01/20 02:35:03;;;;;;;0.80;0.80;;;5.00;99.90;;;;;;4977084;28;20640;-77
2021/01/20 02:37:30;;;;;;;0.80;0.70;;;5.00;99.90;;;;;;4976716;28;20185;-77
2021/01/20 02:39:57;;;;;;;1.20;1.10;;;4.90;99.90;;;;;;4977343;28;20197;-78
2021/01/20 02:42:22;;;;;;;2.13;0.83;;;4.80;99.90;;;;;;4976195;28;20275;-77
2021/01/20 02:44:48;;;;;;;0.60;0.60;;;4.70;99.90;;;;;;4978364;28;21036;-77
2021/01/20 02:47:14;;;;;;;1.43;1.13;;;4.50;99.90;;;;;;4978542;28;20796;-77
2021/01/20 02:49:40;;;;;;;1.20;0.93;;;4.40;99.90;;;;;;4976833;28;20328;-77
2021/01/20 02:52:21;;;;;;;1.17;0.90;;;4.30;99.90;;;;;;4977697;28;20240;-78
2021/01/20 02:54:49;;;;;;;2.63;0.80;;;4.20;99.90;;;;;;4978031;28;20188;-78
2021/01/20 02:57:15;;;;;;;1.23;1.13;;;4.00;99.90;;;;;;4978057;28;20176;-77
2021/01/20 02:59:44;;;;;;;1.07;1.00;;;4.00;99.90;;;;;;4976810;28;20212;-77
2021/01/20 03:02:13;;;;;;;1.53;1.43;;;3.90;99.90;;;;;;4976320;28;20717;-78
2021/01/20 03:04:44;;;;;;;0.70;0.70;;;4.00;99.90;;;;;;4976212;28;20193;-78
2021/01/20 03:07:11;;;;;;;1.10;1.00;;;4.20;99.90;;;;;;4984534;28;20243;-77
2021/01/20 03:09:38;;;;;;;0.70;0.60;;;4.20;99.90;;;;;;4976932;28;20776;-78
2021/01/20 03:12:04;;;;;;;0.80;0.63;;;4.10;99.90;;;;;;4978276;28;20594;-78
2021/01/20 03:14:32;;;;;;;0.80;0.80;;;4.30;99.90;;;;;;4975492;28;20204;-77
2021/01/20 03:16:58;;;;;;;0.77;0.70;;;4.40;99.90;;;;;;4976764;28;20189;-77
2021/01/20 03:19:23;;;;;;;0.80;0.80;;;4.60;99.90;;;;;;4974601;28;20227;-77
2021/01/20 03:21:49;;;;;;;1.03;0.93;;;4.70;99.90;;;;;;4977460;28;20216;-77
2021/01/20 03:24:14;;;;;;;1.30;0.80;;;4.70;99.90;;;;;;4976760;28;20985;-77
2021/01/20 03:26:40;;;;;;;1.73;1.10;;;4.60;99.90;;;;;;4977786;28;20291;-78
2021/01/20 03:29:06;;;;;;;0.67;0.60;;;4.60;99.90;;;;;;4976459;28;20196;-77
2021/01/20 03:31:32;;;;;;;0.70;0.70;;;4.60;99.90;;;;;;4977937;28;20717;-77
2021/01/20 03:33:58;;;;;;;0.67;0.67;;;4.40;99.90;;;;;;4977798;28;20557;-78
2021/01/20 03:36:25;;;;;;;0.67;0.57;;;4.50;99.90;;;;;;4975612;28;20654;-77
2021/01/20 03:38:51;;;;;;;1.03;0.60;;;4.30;99.90;;;;;;4977693;28;20188;-77
2021/01/20 03:41:16;;;;;;;0.67;0.67;;;4.30;99.90;;;;;;4978725;28;20188;-77
2021/01/20 03:43:42;;;;;;;1.23;0.67;;;4.20;99.90;;;;;;4977871;28;20279;-79
2021/01/20 03:46:07;;;;;;;2.80;1.17;;;4.00;99.90;;;;;;4977390;28;20581;-77
2021/01/20 03:48:33;;;;;;;1.20;1.10;;;4.00;99.90;;;;;;4977771;28;20216;-77
2021/01/20 03:50:58;;;;;;;0.70;0.60;;;4.10;99.90;;;;;;4976422;28;20196;-78
2021/01/20 03:53:24;;;;;;;0.67;0.67;;;4.10;99.90;;;;;;4977188;28;20180;-77
2021/01/20 03:55:50;;;;;;;1.07;0.73;;;4.00;99.90;;;;;;4975513;28;20597;-78
2021/01/20 03:58:15;;;;;;;0.70;0.70;;;3.90;99.90;;;;;;4977146;28;20196;-76
2021/01/20 04:00:41;;;;;;;2.47;0.90;;;3.90;99.90;;;;;;4974932;28;20204;-77
2021/01/20 04:03:06;;;;;;;0.70;0.60;;;3.90;99.90;;;;;;4974979;28;20189;-78
2021/01/20 04:05:32;;;;;;;0.57;0.57;;;3.80;99.90;;;;;;4976623;28;20274;-77
2021/01/20 04:07:58;;;;;;;0.50;0.50;;;3.70;99.90;;;;;;4975176;28;20185;-78
2021/01/20 04:10:23;;;;;;;0.50;0.50;;;3.70;99.90;;;;;;4975451;28;20200;-79
2021/01/20 04:12:49;;;;;;;0.80;0.70;;;3.60;99.90;;;;;;4975888;28;21201;-77
2021/01/20 04:15:15;;;;;;;1.63;0.93;;;3.70;99.90;;;;;;4976174;28;20235;-77
2021/01/20 04:17:40;;;;;;;0.90;0.90;;;3.80;99.90;;;;;;4974331;28;20192;-77
2021/01/20 04:20:06;;;;;;;0.70;0.70;;;4.00;99.90;;;;;;4973804;28;20279;-79
2021/01/20 04:22:33;;;;;;;0.60;0.47;;;4.40;99.90;;;;;;4976716;28;20204;-77
2021/01/20 04:24:59;;;;;;;1.00;0.70;;;4.50;99.90;;;;;;4975986;28;20180;-77
2021/01/20 04:27:24;;;;;;;0.77;0.60;;;4.70;99.90;;;;;;4976726;28;20211;-77
2021/01/20 04:29:50;;;;;;;1.03;0.90;;;4.80;99.90;;;;;;4975661;28;20203;-78
2021/01/20 04:32:15;;;;;;;3.70;1.03;;;4.90;99.90;;;;;;4976308;28;20176;-75
2021/01/20 04:34:41;;;;;;;0.70;0.63;;;4.90;99.90;;;;;;4975613;28;20654;-76
2021/01/20 04:37:07;;;;;;;0.47;0.40;;;5.10;99.90;;;;;;4976794;28;20654;-77
2021/01/20 04:39:32;;;;;;;0.70;0.50;;;5.20;99.90;;;;;;4973963;28;20213;-76
2021/01/20 04:41:58;;;;;;;0.80;0.57;;;5.20;99.90;;;;;;4975257;28;20791;-77
2021/01/20 04:44:24;;;;;;;0.90;0.60;;;5.00;99.90;;;;;;4976711;28;20188;-76
2021/01/20 04:46:52;;;;;;;1.10;0.70;;;5.20;99.90;;;;;;4976617;28;20200;-77
2021/01/20 04:49:19;;;;;;;1.17;0.73;;;5.20;99.90;;;;;;4974945;28;20201;-77
2021/01/20 04:51:46;;;;;;;1.30;0.70;;;5.30;99.90;;;;;;4975625;28;20750;-76
2021/01/20 04:54:15;;;;;;;0.70;0.70;;;5.20;99.90;;;;;;4976711;28;20222;-76
2021/01/20 04:56:41;;;;;;;0.67;0.50;;;5.10;99.90;;;;;;4982777;28;20188;-77
2021/01/20 04:59:07;;;;;;;0.53;0.53;;;5.30;99.90;;;;;;4976080;28;20199;-75
2021/01/20 05:01:33;;;;;;;2.17;0.70;;;5.20;99.90;;;;;;4976696;28;20192;-75
2021/01/20 05:04:00;;;;;;;0.80;0.53;;;5.20;99.90;;;;;;4975792;28;20188;-77
2021/01/20 05:06:28;;;;;;;0.50;0.50;;;5.30;99.90;;;;;;4974844;28;20196;-77
2021/01/20 05:08:54;;;;;;;0.73;0.70;;;5.30;99.90;;;;;;4974158;28;20187;-77
2021/01/20 05:11:20;;;;;;;0.73;0.57;;;5.20;99.90;;;;;;4975030;28;20760;-78
2021/01/20 05:13:45;;;;;;;1.00;0.90;;;5.30;99.90;;;;;;4976210;28;20180;-76
2021/01/20 05:16:26;;;;;;;1.80;0.83;;;5.40;99.90;;;;;;4975903;28;20183;-76
2021/01/20 05:18:52;;;;;;;0.47;0.40;;;5.30;99.90;;;;;;4973215;28;21045;-76
2021/01/20 05:21:18;;;;;;;0.70;0.70;;;5.30;99.90;;;;;;4975254;28;20180;-77
2021/01/20 05:23:43;;;;;;;3.50;0.90;;;5.30;99.90;;;;;;4974906;28;20188;-77
2021/01/20 05:26:09;;;;;;;0.63;0.53;;;5.30;99.90;;;;;;4974663;28;20581;-77
2021/01/20 05:28:36;;;;;;;1.23;0.90;;;5.30;99.90;;;;;;4975823;28;20195;-76
2021/01/20 05:31:03;;;;;;;0.40;0.40;;;5.30;99.90;;;;;;4974900;28;20176;-77
2021/01/20 05:33:39;;;;;;;0.93;0.70;;;5.30;99.90;;;;;;4977384;28;20186;-77
2021/01/20 05:36:10;;;;;;;1.53;1.00;;;5.30;99.90;;;;;;4976754;28;20239;-76
2021/01/20 05:38:39;;;;;;;0.70;0.60;;;5.30;99.90;;;;;;4973633;28;20728;-76
2021/01/20 05:41:24;;;;;;;0.80;0.80;;;5.20;99.90;;;;;;4974810;28;20181;-76
2021/01/20 05:43:54;;;;;;;0.60;0.60;;;5.10;99.90;;;;;;4974961;28;20184;-78
2021/01/20 05:46:37;;;;;;;1.10;0.90;;;5.10;99.90;;;;;;4976242;28;20205;-78
2021/01/20 05:49:04;;;;;;;0.70;0.60;;;5.30;99.90;;;;;;4975151;28;20295;-76
2021/01/20 05:51:41;;;;;;;1.57;0.70;;;5.30;99.90;;;;;;4973605;28;20191;-76
2021/01/20 05:54:11;;;;;;;0.97;0.70;;;5.20;99.90;;;;;;4974944;28;20176;-76
2021/01/20 05:56:37;;;;;;;1.83;1.23;;;5.20;99.90;;;;;;4975475;28;20232;-76
2021/01/20 05:59:09;;;;;;;1.20;0.90;;;5.20;99.90;;;;;;4974468;28;20204;-76
2021/01/20 06:01:36;;;;;;;1.57;0.83;;;5.10;99.90;;;;;;4991359;28;20688;-76
2021/01/20 06:04:06;;;;;;;0.80;0.80;;;5.20;99.90;;;;;;4975392;28;20172;-77
2021/01/20 06:06:33;;;;;;;0.93;0.80;;;5.30;99.90;;;;;;4974697;28;20455;-76
2021/01/20 06:09:00;;;;;;;3.80;0.70;;;5.40;99.90;;;;;;4975057;28;20287;-76
2021/01/20 06:11:26;;;;;;;1.30;0.70;;;5.40;99.90;;;;;;4978085;28;20316;-77
2021/01/20 06:13:53;;;;;;;1.10;0.80;;;5.50;99.90;;;;;;4990164;23;20774;-76
2021/01/20 06:16:39;;;;;;;1.07;0.80;;;5.60;99.90;;;;;;4977290;28;20200;-76
2021/01/20 06:19:16;;;;;;;0.50;0.50;;;5.60;99.90;;;;;;4972045;28;20244;-74
2021/01/20 06:21:44;;;;;;;1.67;1.03;;;5.60;99.90;;;;;;4967596;28;20220;-75
2021/01/20 06:24:33;;;;;;;0.80;0.80;;;5.50;99.90;;;;;;4984511;28;20209;-77
2021/01/20 06:27:17;;;;;;;0.60;0.60;;;5.60;99.90;;;;;;4968693;28;20220;-77
2021/01/20 06:29:51;;;;;;;1.37;1.00;;;5.70;99.90;;;;;;4967481;28;20201;-76
2021/01/20 06:32:21;;;;;;;1.10;0.90;;;5.90;99.90;;;;;;4965575;28;20188;-77
2021/01/20 06:34:54;;;;;;;0.60;0.60;;;5.80;99.90;;;;;;4967396;28;20173;-78
2021/01/20 06:37:41;;;;;;;0.60;0.50;;;5.80;99.90;;;;;;4967098;28;20181;-77
2021/01/20 06:40:22;;;;;;;2.30;0.80;;;5.80;99.90;;;;;;4966942;28;20224;-77
2021/01/20 06:42:49;;;;;;;1.67;1.10;;;5.60;99.90;;;;;;4966728;28;20193;-77
2021/01/20 06:45:23;;;;;;;1.63;0.97;;;5.80;99.90;;;;;;4967302;28;20189;-77
2021/01/20 06:47:58;;;;;;;2.57;0.90;;;5.80;99.90;;;;;;4967927;28;20197;-76
2021/01/20 06:50:28;;;;;;;1.30;1.10;;;5.70;99.90;;;;;;4965865;28;20215;-77
2021/01/20 06:53:05;;;;;;;0.90;0.60;;;5.60;99.90;;;;;;4968406;28;20196;-77
2021/01/20 06:55:35;;;;;;;0.87;0.87;;;5.60;99.90;;;;;;4968126;28;20239;-77
2021/01/20 06:58:26;;;;;;;0.50;0.50;;;5.50;99.90;;;;;;4967136;28;20192;-77
2021/01/20 07:01:01;;;;;;;0.53;0.53;;;5.40;99.90;;;;;;4959796;28;20201;-76
2021/01/20 07:03:54;;;;;;;1.03;0.70;;;5.50;99.90;;;;;;4965289;28;20220;-76
2021/01/20 07:06:35;;;;;;;1.83;1.20;;;5.40;99.90;;;;;;4967136;28;20288;-77
2021/01/20 07:09:14;;;;;;;1.27;0.90;;;5.50;99.90;;;;;;4965513;28;20255;-77
2021/01/20 07:11:59;;;;;;;1.20;0.73;;;5.50;99.90;;;;;;4967339;28;20193;-78
2021/01/20 07:14:32;;;;;;;1.20;0.83;;;5.50;99.90;;;;;;4967434;28;20191;-76
2021/01/20 07:16:58;;;;;;;0.70;0.70;;;5.40;99.90;;;;;;4966861;28;20197;-76
2021/01/20 07:19:28;;;;;;;0.93;0.70;;;5.50;99.90;;;;;;4966001;28;20713;-76
2021/01/20 07:21:54;;;;;;;1.63;0.90;;;5.40;99.90;;;;;;4965248;28;20189;-77
2021/01/20 07:24:20;;;;;;;1.03;0.70;;;5.30;99.90;;;;;;4965408;28;20189;-77
2021/01/20 07:26:47;;;;;;;0.63;0.50;;;5.20;99.90;;;;;;4966734;28;20208;-77
2021/01/20 07:29:17;;;;;;;2.77;1.43;;;5.30;99.90;;;;;;4966190;28;20686;-78
2021/01/20 07:31:47;;;;;;;0.80;0.80;;;5.30;99.90;;;;;;4967623;28;20192;-77
2021/01/20 07:34:13;;;;;;;1.20;0.60;;;5.20;99.90;;;;;;4965609;28;20177;-77
2021/01/20 07:36:38;;;;;;;0.67;0.40;;;5.20;99.90;;;;;;4966280;28;20199;-76
2021/01/20 07:39:22;;;;;;;0.70;0.70;;;5.20;99.90;;;;;;4965711;28;20575;-78
2021/01/20 07:41:52;;;;;;;1.50;1.40;;;5.10;99.90;;;;;;4967686;28;20673;-76
2021/01/20 07:44:18;;;;;;;2.27;1.43;;;5.20;99.90;;;;;;4967351;28;20192;-76
2021/01/20 07:46:44;;;;;;;1.47;1.30;;;5.30;99.90;;;;;;4967558;28;20205;-78
2021/01/20 07:49:13;;;;;;;1.70;1.60;;;5.40;99.90;;;;;;4966269;28;20224;-77
2021/01/20 07:51:39;;;;;;;0.80;0.80;;;5.50;99.90;;;;;;4966007;28;20420;-76
2021/01/20 07:54:06;;;;;;;0.87;0.87;;;5.60;99.90;;;;;;4967247;28;20203;-76
2021/01/20 07:56:32;;;;;;;2.87;1.07;;;5.70;99.90;;;;;;4965512;28;20525;-77
2021/01/20 07:59:15;;;;;;;0.87;0.80;;;5.70;99.90;;;;;;4966778;28;20201;-77
2021/01/20 08:01:41;;;;;;;0.50;0.50;;;5.70;99.90;;;;;;4981635;28;20189;-77
2021/01/20 08:04:21;;;;;;;0.67;0.53;;;5.90;99.90;;;;;;4967104;28;20185;-77
2021/01/20 08:06:47;;;;;;;0.57;0.57;;;5.90;99.90;;;;;;4965244;28;20756;-76
2021/01/20 08:09:12;;;;;;;0.60;0.60;;;6.00;99.90;;;;;;4965285;28;20201;-77
2021/01/20 08:11:41;;;;;;;1.07;0.90;;;6.20;99.90;;;;;;4967203;28;20195;-78
2021/01/20 08:14:08;;;;;;;3.17;1.53;;;6.30;99.90;;;;;;4982612;28;20188;-78
2021/01/20 08:16:34;;;;;;;3.30;1.57;;;6.30;99.90;;;;;;4967120;28;20188;-76
2021/01/20 08:19:03;;;;;;;2.50;1.57;;;6.30;99.90;;;;;;4967019;28;20201;-76
2021/01/20 08:21:29;;;;;;;0.73;0.60;;;6.20;99.90;;;;;;4966682;28;20192;-77
2021/01/20 08:23:57;;;;;;;2.20;0.80;;;6.30;99.90;;;;;;4967010;28;20180;-76
2021/01/20 08:26:26;;;;;;;0.90;0.80;;;6.40;99.90;;;;;;4966574;28;20216;-77
2021/01/20 08:29:12;;;;;;;0.60;0.60;;;6.60;99.90;;;;;;4966387;28;20639;-77
2021/01/20 08:31:39;;;;;;;0.90;0.70;;;6.60;99.90;;;;;;4966216;28;20181;-76
2021/01/20 08:34:14;;;;;;;1.80;1.00;;;6.60;99.90;;;;;;4966780;28;20185;-76
2021/01/20 08:36:57;;;;;;;0.63;0.63;;;6.60;99.90;;;;;;4967202;28;20185;-76
2021/01/20 08:39:24;;;;;;;0.83;0.80;;;6.50;99.90;;;;;;4966526;28;20205;-78
2021/01/20 08:42:29;;;;;;;0.77;0.77;;;6.60;99.90;;;;;;4967030;28;20888;-77
2021/01/20 08:45:05;;;;;;;2.40;1.17;;;6.70;99.90;;;;;;4965079;28;20180;-76
2021/01/20 08:47:35;;;;;;;1.23;1.00;;;6.70;99.90;;;;;;4962767;28;20211;-76
2021/01/20 08:50:01;;;;;;;0.70;0.70;;;6.70;99.90;;;;;;4958029;28;20204;-76
2021/01/20 08:52:44;;;;;;;1.77;1.67;;;6.80;99.90;;;;;;4962579;28;20181;-76
2021/01/20 08:55:34;;;;;;;0.90;0.80;;;6.80;99.90;;;;;;4963418;28;20194;-76
2021/01/20 08:58:18;;;;;;;2.27;1.10;;;7.00;99.90;;;;;;4962469;28;20247;-75
2021/01/20 09:00:45;;;;;;;1.03;0.60;;;7.10;99.90;;;;;;4960532;28;20204;-76
2021/01/20 09:03:19;;;;;;;0.70;0.63;;;7.20;99.90;;;;;;4961804;28;20240;-76
2021/01/20 09:05:46;;;;;;;1.97;1.30;;;7.20;99.90;;;;;;4958473;28;20276;-75
2021/01/20 09:08:13;;;;;;;1.10;0.83;;;7.20;99.90;;;;;;4960866;28;20217;-75
2021/01/20 09:10:39;;;;;;;0.57;0.40;;;7.50;99.90;;;;;;4961422;28;20712;-76
2021/01/20 09:13:04;;;;;;;1.07;0.60;;;7.60;99.90;;;;;;4962825;28;20188;-75
2021/01/20 09:15:30;;;;;;;0.40;0.40;;;7.70;99.90;;;;;;4961224;28;20205;-76
2021/01/20 09:17:56;;;;;;;0.70;0.70;;;7.70;99.90;;;;;;4963292;28;20541;-76
2021/01/20 09:20:22;;;;;;;0.60;0.60;;;7.80;99.90;;;;;;4963102;28;20212;-75
2021/01/20 09:22:48;;;;;;;0.40;0.40;;;7.90;99.90;;;;;;4963633;28;20184;-75
2021/01/20 09:25:14;;;;;;;0.67;0.67;;;7.90;99.90;;;;;;4962268;28;20185;-75
2021/01/20 09:27:39;;;;;;;0.77;0.50;;;8.00;99.90;;;;;;4964672;28;20220;-74
2021/01/20 09:30:07;;;;;;;0.80;0.70;;;8.00;99.90;;;;;;4961965;28;20571;-75
2021/01/20 09:32:39;;;;;;;1.20;0.50;;;8.00;99.90;;;;;;4961422;28;20223;-77
2021/01/20 09:35:12;;;;;;;0.47;0.43;;;8.10;99.90;;;;;;4962056;28;20233;-76
2021/01/20 09:37:39;;;;;;;1.00;0.60;;;8.00;99.90;;;;;;4962682;28;20344;-76
2021/01/20 09:40:13;;;;;;;2.60;1.77;;;8.00;99.90;;;;;;4962840;28;20212;-76
2021/01/20 09:42:40;;;;;;;0.80;0.80;;;7.90;99.90;;;;;;4962792;28;20192;-76
2021/01/20 09:45:08;;;;;;;0.67;0.53;;;8.00;99.90;;;;;;4966321;28;20255;-76
2021/01/20 09:47:36;;;;;;;1.43;1.07;;;8.00;99.90;;;;;;4965488;28;20299;-76
2021/01/20 09:50:04;;;;;;;0.83;0.63;;;8.10;99.90;;;;;;4964217;28;20207;-76
2021/01/20 09:52:30;;;;;;;0.97;0.87;;;8.00;99.90;;;;;;4964436;28;20207;-76
2021/01/20 09:54:55;;;;;;;1.57;0.63;;;8.10;99.90;;;;;;4964660;28;20185;-76
2021/01/20 09:57:22;;;;;;;0.63;0.63;;;8.10;99.90;;;;;;4965747;28;20199;-77
2021/01/20 09:59:48;;;;;;;1.10;0.70;;;8.10;99.90;;;;;;4964724;28;20220;-76
2021/01/20 10:02:14;;;;;;;0.80;0.50;;;8.10;99.90;;;;;;4965720;28;20192;-76
2021/01/20 10:04:41;;;;;;;0.63;0.53;;;8.10;99.90;;;;;;4963531;28;20319;-76
2021/01/20 10:07:07;;;;;;;0.60;0.50;;;8.10;99.90;;;;;;4965856;28;20208;-76
2021/01/20 10:09:33;;;;;;;0.90;0.60;;;8.30;99.90;;;;;;4965341;28;20216;-76
2021/01/20 10:11:59;;;;;;;1.33;0.90;;;8.30;99.90;;;;;;4964514;28;20220;-76
2021/01/20 10:14:25;;;;;;;0.77;0.60;;;8.30;99.90;;;;;;4964522;28;21260;-76
2021/01/20 10:16:52;;;;;;;2.20;1.53;;;8.40;99.90;;;;;;4965745;28;20192;-76
2021/01/20 10:19:18;;;;;;;1.40;0.87;;;8.40;99.90;;;;;;4965388;28;20224;-76
2021/01/20 10:21:43;;;;;;;0.90;0.63;;;8.50;99.90;;;;;;4965608;28;20224;-76
2021/01/20 10:24:10;;;;;;;1.23;0.60;;;8.50;99.90;;;;;;4966504;28;20631;-76
2021/01/20 10:26:36;;;;;;;1.30;0.60;;;8.50;99.90;;;;;;4963255;28;20216;-75
2021/01/20 10:29:03;;;;;;;0.70;0.70;;;8.60;99.90;;;;;;4965306;28;20224;-76
2021/01/20 10:31:30;;;;;;;0.40;0.40;;;8.50;99.90;;;;;;4965534;28;20188;-76
2021/01/20 10:33:56;;;;;;;1.33;0.50;;;8.50;99.90;;;;;;4964892;28;20185;-76
2021/01/20 10:36:21;;;;;;;0.60;0.60;;;8.50;99.90;;;;;;4966301;28;20239;-75
2021/01/20 10:38:47;;;;;;;0.50;0.50;;;8.50;99.90;;;;;;4965899;28;20667;-73
2021/01/20 10:41:12;;;;;;;0.70;0.40;;;8.50;99.90;;;;;;4961612;28;20539;-75
2021/01/20 10:43:38;;;;;;;0.50;0.50;;;8.50;99.90;;;;;;4965172;28;20789;-75
2021/01/20 10:46:03;;;;;;;0.30;0.30;;;8.50;99.90;;;;;;4965059;28;20733;-75
2021/01/20 10:48:29;;;;;;;1.17;0.80;;;8.40;99.90;;;;;;4963671;28;20193;-75
2021/01/20 10:50:55;;;;;;;0.50;0.50;;;8.50;99.90;;;;;;4962852;28;20205;-75
2021/01/20 10:53:20;;;;;;;1.07;0.53;;;8.50;99.90;;;;;;4963576;28;20546;-75
2021/01/20 10:55:47;;;;;;;0.83;0.70;;;8.50;99.90;;;;;;4963914;28;20185;-75
2021/01/20 10:58:13;;;;;;;0.60;0.43;;;8.50;99.90;;;;;;4963822;28;20181;-75
2021/01/20 11:00:38;;;;;;;0.63;0.63;;;8.40;99.90;;;;;;4964184;28;20649;-76
2021/01/20 11:03:04;;;;;;;1.07;0.70;;;8.50;99.90;;;;;;4963105;28;20185;-75
2021/01/20 11:05:29;;;;;;;0.83;0.60;;;8.60;99.90;;;;;;4963063;28;20203;-75
2021/01/20 11:07:55;;;;;;;0.50;0.50;;;8.60;99.90;;;;;;4963855;28;20275;-75
2021/01/20 11:10:21;;;;;;;0.50;0.50;;;8.50;99.90;;;;;;4962826;28;20436;-72
2021/01/20 11:12:48;;;;;;;0.57;0.57;;;8.50;99.90;;;;;;4964648;28;20173;-76
2021/01/20 11:15:14;;;;;;;1.30;0.50;;;8.50;99.90;;;;;;4964722;28;20757;-75
2021/01/20 11:17:40;;;;;;;0.87;0.50;;;8.50;99.90;;;;;;4964345;28;20995;-75
2021/01/20 11:20:05;;;;;;;0.80;0.80;;;8.40;99.90;;;;;;4964220;28;20201;-76
2021/01/20 11:22:32;;;;;;;0.83;0.80;;;8.40;99.90;;;;;;4964039;28;21262;-76
2021/01/20 11:25:01;;;;;;;0.67;0.50;;;8.40;99.90;;;;;;4962674;28;20185;-76
2021/01/20 11:27:29;;;;;;;0.40;0.40;;;8.40;99.90;;;;;;4962119;28;20205;-76
2021/01/20 11:29:55;;;;;;;0.53;0.53;;;8.50;99.90;;;;;;4964133;28;20577;-76
2021/01/20 11:32:21;;;;;;;6.97;2.43;;;8.50;99.90;;;;;;4966271;28;20181;-76
2021/01/20 11:34:47;;;;;;;1.13;0.73;;;8.50;99.90;;;;;;4965651;28;20212;-75
2021/01/20 11:37:12;;;;;;;1.07;0.63;;;8.60;99.90;;;;;;4964784;28;20546;-75
2021/01/20 11:39:38;;;;;;;0.70;0.70;;;8.70;99.90;;;;;;4965794;28;20285;-75
2021/01/20 11:42:04;;;;;;;0.90;0.60;;;8.70;99.90;;;;;;4965149;28;20192;-75
2021/01/20 11:44:30;;;;;;;0.60;0.50;;;8.80;99.90;;;;;;4964176;28;20189;-76
2021/01/20 11:46:55;;;;;;;0.83;0.57;;;8.80;99.90;;;;;;4962147;28;20234;-71
2021/01/20 11:49:21;;;;;;;0.63;0.50;;;8.70;99.90;;;;;;4963026;28;20200;-74
2021/01/20 11:51:46;;;;;;;0.40;0.40;;;8.80;99.90;;;;;;4963699;28;20999;-73
2021/01/20 11:54:12;;;;;;;0.80;0.60;;;8.80;99.90;;;;;;4962892;28;20232;-75
2021/01/20 11:56:38;;;;;;;0.70;0.40;;;8.90;99.90;;;;;;4963746;28;20188;-76
2021/01/20 11:59:03;;;;;;;0.87;0.87;;;8.90;99.90;;;;;;4962710;28;20559;-76
2021/01/20 12:01:32;;;;;;;0.60;0.50;;;9.00;99.90;;;;;;4962345;28;20203;-74
2021/01/20 12:03:59;;;;;;;0.67;0.60;;;9.00;99.90;;;;;;4961643;28;20207;-76
2021/01/20 12:06:25;;;;;;;1.00;0.70;;;9.10;99.90;;;;;;4960918;28;20231;-76
2021/01/20 12:08:50;;;;;;;0.80;0.60;;;9.10;99.90;;;;;;4962506;28;20283;-76
2021/01/20 12:11:16;;;;;;;0.87;0.80;;;9.20;99.90;;;;;;4963128;28;20694;-76
2021/01/20 12:13:41;;;;;;;1.63;1.37;;;9.20;99.90;;;;;;4964250;28;20181;-76
2021/01/20 12:16:07;;;;;;;0.77;0.73;;;9.20;99.90;;;;;;4962570;28;20293;-75
2021/01/20 12:18:32;;;;;;;0.80;0.80;;;9.10;99.90;;;;;;4961755;28;20577;-76
2021/01/20 12:20:59;;;;;;;0.77;0.77;;;9.00;99.90;;;;;;4961888;28;20201;-76
2021/01/20 12:23:26;;;;;;;0.80;0.67;;;9.00;99.90;;;;;;4962657;28;20181;-76
2021/01/20 12:25:52;;;;;;;0.83;0.60;;;8.90;99.90;;;;;;4963394;28;20259;-76
2021/01/20 12:28:18;;;;;;;0.70;0.67;;;8.90;99.90;;;;;;4963828;28;21011;-76
2021/01/20 12:30:44;;;;;;;0.90;0.63;;;8.90;99.90;;;;;;4961619;28;20325;-75
2021/01/20 12:33:09;;;;;;;0.73;0.57;;;8.90;99.90;;;;;;4962960;28;20213;-77
2021/01/20 12:35:35;;;;;;;1.30;0.70;;;8.80;99.90;;;;;;4961601;28;20192;-76
2021/01/20 12:38:03;;;;;;;0.60;0.57;;;8.80;99.90;;;;;;4963523;28;20674;-75
2021/01/20 12:40:28;;;;;;;0.50;0.50;;;8.80;99.90;;;;;;4961741;28;20216;-76
2021/01/20 12:42:54;;;;;;;0.67;0.50;;;8.90;99.90;;;;;;4962880;28;20185;-76
2021/01/20 12:45:20;;;;;;;2.13;0.60;;;8.90;99.90;;;;;;4962171;28;20189;-76
2021/01/20 12:47:45;;;;;;;0.97;0.90;;;8.90;99.90;;;;;;4962486;28;20208;-76
2021/01/20 12:50:11;;;;;;;0.67;0.67;;;9.00;99.90;;;;;;4962631;28;20986;-76
2021/01/20 12:52:37;;;;;;;0.63;0.63;;;9.00;99.90;;;;;;4962405;28;20188;-76
2021/01/20 12:55:03;;;;;;;0.93;0.70;;;9.10;99.90;;;;;;4963117;28;20688;-75
2021/01/20 12:57:29;;;;;;;0.97;0.53;;;9.20;99.90;;;;;;4963338;28;20284;-76
2021/01/20 12:59:54;;;;;;;0.97;0.83;;;9.30;99.90;;;;;;4963038;28;20740;-77
2021/01/20 13:02:20;;;;;;;1.10;0.57;;;9.50;99.90;;;;;;4962641;28;20189;-76
2021/01/20 13:04:46;;;;;;;0.83;0.70;;;9.30;99.90;;;;;;4963512;28;20187;-76